Time;durP1;ratioP1;P1;durP2;ratioP2;P2;SDS_P1;SDS_P2;PMS_P1;PMS_P2;Temp;Humidity;BMP_temperature;BMP_pressure;BME280_temperature;BME280_humidity;BME280_pressure;Samples;Min_cycle;Max_cycle;Signal;HPM_P1;HPM_P2
2022/03/25 00:00:04;;;;;;;;;;;;;;;21.90;38.49;102401.88;4972071;28;5257;-58
2022/03/25 00:02:38;;;;;;;;;;;;;;;21.90;38.52;102396.09;4974754;28;4261;-57
2022/03/25 00:05:05;;;;;;;;;;;;;;;21.90;38.48;102396.09;4968363;28;5101;-58
2022/03/25 00:07:32;;;;;;;;;;;;;;;21.89;38.51;102394.56;4973604;28;4243;-57
2022/03/25 00:09:59;;;;;;;;;;;;;;;21.92;38.37;102399.09;4974379;28;4297;-58
2022/03/25 00:12:26;;;;;;;;;;;;;;;21.91;38.58;102391.81;4969998;28;4164;-57
2022/03/25 00:14:52;;;;;;;;;;;;;;;21.90;38.42;102390.31;4973465;28;4206;-57
2022/03/25 00:17:19;;;;;;;;;;;;;;;21.88;38.50;102402.47;4974526;28;5358;-57
2022/03/25 00:19:45;;;;;;;;;;;;;;;21.88;38.18;102390.94;4975996;28;4375;-58
2022/03/25 00:22:12;;;;;;;;;;;;;;;21.89;38.18;102385.91;4975632;28;4397;-58
2022/03/25 00:24:38;;;;;;;;;;;;;;;21.89;38.22;102383.03;4974556;28;4238;-57
2022/03/25 00:27:04;;;;;;;;;;;;;;;21.87;38.45;102386.53;4975357;28;5279;-58
2022/03/25 00:29:31;;;;;;;;;;;;;;;21.88;38.34;102387.31;4973447;28;4240;-58
2022/03/25 00:31:59;;;;;;;;;;;;;;;21.88;38.45;102387.31;4970304;28;5274;-58
2022/03/25 00:34:26;;;;;;;;;;;;;;;21.88;38.33;102375.78;4971638;28;6725;-58
2022/03/25 00:36:52;;;;;;;;;;;;;;;21.88;38.30;102375.78;4970974;28;4544;-58
2022/03/25 00:39:19;;;;;;;;;;;;;;;21.86;38.31;102367.00;4974894;28;4267;-58
2022/03/25 00:41:45;;;;;;;;;;;;;;;21.86;38.30;102372.75;4973641;28;4259;-58
2022/03/25 00:44:14;;;;;;;;;;;;;;;21.84;38.34;102372.63;4974275;28;4315;-58
2022/03/25 00:46:41;;;;;;;;;;;;;;;21.83;38.41;102373.97;4973971;28;4208;-57
2022/03/25 00:49:07;;;;;;;;;;;;;;;21.81;38.48;102365.97;4956995;28;4218;-58
2022/03/25 00:51:34;;;;;;;;;;;;;;;21.81;38.42;102371.75;4973848;28;4236;-58
2022/03/25 00:54:03;;;;;;;;;;;;;;;21.83;38.29;102368.22;4969956;28;4615;-58
2022/03/25 00:56:29;;;;;;;;;;;;;;;21.83;38.41;102373.97;4974889;28;5519;-58
2022/03/25 00:58:56;;;;;;;;;;;;;;;21.83;38.25;102373.97;4979575;28;4206;-58
2022/03/25 01:01:22;;;;;;;;;;;;;;;21.82;38.48;102372.47;4974129;28;4233;-58
2022/03/25 01:03:50;;;;;;;;;;;;;;;21.79;38.38;102367.97;4974429;28;4206;-58
2022/03/25 01:06:21;;;;;;;;;;;;;;;21.78;38.34;102372.97;4975411;28;4113;-58
2022/03/25 01:08:47;;;;;;;;;;;;;;;21.80;38.18;102363.69;4979895;28;4171;-58
2022/03/25 01:11:14;;;;;;;;;;;;;;;21.78;38.40;102360.69;4975358;28;4191;-58
2022/03/25 01:13:40;;;;;;;;;;;;;;;21.77;38.40;102362.06;4977608;28;5269;-58
2022/03/25 01:16:07;;;;;;;;;;;;;;;21.77;38.38;102353.41;4974759;28;4256;-58
2022/03/25 01:18:36;;;;;;;;;;;;;;;21.73;38.32;102354.66;4979392;28;4343;-58
2022/03/25 01:21:02;;;;;;;;;;;;;;;21.72;38.38;102353.16;4974892;28;4134;-58
2022/03/25 01:23:29;;;;;;;;;;;;;;;21.70;38.37;102350.13;4975165;28;5256;-58
2022/03/25 01:25:55;;;;;;;;;;;;;;;21.69;38.40;102348.66;4975592;28;4287;-57
2022/03/25 01:28:23;;;;;;;;;;;;;;;21.68;38.32;102350.00;4975690;28;5089;-58
2022/03/25 01:30:49;;;;;;;;;;;;;;;21.67;38.20;102345.63;4961886;28;4385;-58
2022/03/25 01:33:15;;;;;;;;;;;;;;;21.73;38.25;102354.66;4976869;28;4237;-58
2022/03/25 01:35:42;;;;;;;;;;;;;;;21.74;38.30;102344.63;4975677;28;4337;-57
2022/03/25 01:38:08;;;;;;;;;;;;;;;21.73;38.06;102348.13;4976989;28;4367;-57
2022/03/25 01:40:35;;;;;;;;;;;;;;;21.74;37.95;102356.19;4962114;28;4167;-58
2022/03/25 01:43:01;;;;;;;;;;;;;;;21.75;38.32;102357.66;4978802;28;5289;-58
2022/03/25 01:45:32;;;;;;;;;;;;;;;21.75;38.40;102362.69;4960491;28;4277;-57
2022/03/25 01:47:59;;;;;;;;;;;;;;;21.77;38.21;102364.97;4978381;28;5494;-57
2022/03/25 01:50:26;;;;;;;;;;;;;;;21.77;38.11;102359.19;4976616;28;4072;-58
2022/03/25 01:52:52;;;;;;;;;;;;;;;21.74;38.31;102361.94;4977197;28;5383;-57
2022/03/25 01:55:21;;;;;;;;;;;;;;;21.75;38.19;102368.44;4975284;28;4088;-57
2022/03/25 01:57:49;;;;;;;;;;;;;;;21.74;38.06;102367.72;4975430;28;4099;-57
2022/03/25 02:00:16;;;;;;;;;;;;;;;21.74;38.00;102367.72;4975489;28;4152;-58
2022/03/25 02:02:48;;;;;;;;;;;;;;;21.75;38.25;102366.31;4974540;28;5387;-59
2022/03/25 02:05:17;;;;;;;;;;;;;;;21.74;38.29;102367.72;4956071;28;4254;-58
2022/03/25 02:07:44;;;;;;;;;;;;;;;21.74;38.39;102361.94;4972894;28;4233;-58
2022/03/25 02:10:10;;;;;;;;;;;;;;;21.72;38.15;102361.81;4970282;28;4178;-58
2022/03/25 02:12:38;;;;;;;;;;;;;;;21.72;38.29;102358.94;4960707;28;4252;-58
2022/03/25 02:15:05;;;;;;;;;;;;;;;21.70;38.39;102355.91;4960891;28;4230;-58
2022/03/25 02:17:32;;;;;;;;;;;;;;;21.70;38.29;102353.03;4972192;28;5478;-58
2022/03/25 02:19:58;;;;;;;;;;;;;;;21.71;38.18;102357.41;4974640;28;4134;-58
2022/03/25 02:22:25;;;;;;;;;;;;;;;21.73;38.21;102354.66;4975857;28;4362;-57
2022/03/25 02:24:51;;;;;;;;;;;;;;;21.72;38.20;102356.03;4974275;28;4207;-57
2022/03/25 02:27:19;;;;;;;;;;;;;;;21.71;38.16;102354.53;4971987;28;4210;-57
2022/03/25 02:29:45;;;;;;;;;;;;;;;21.75;38.26;102357.66;4966576;28;4264;-57
2022/03/25 02:32:12;;;;;;;;;;;;;;;21.74;38.03;102361.19;4969670;28;5404;-57
2022/03/25 02:34:38;;;;;;;;;;;;;;;21.72;38.32;102353.16;4978994;28;4099;-57
2022/03/25 02:37:05;;;;;;;;;;;;;;;21.73;38.21;102353.91;4973129;28;5271;-57
2022/03/25 02:39:31;;;;;;;;;;;;;;;21.71;38.21;102351.63;4956718;28;5856;-58
2022/03/25 02:41:57;;;;;;;;;;;;;;;21.72;38.25;102346.63;4972544;28;4167;-58
2022/03/25 02:44:24;;;;;;;;;;;;;;;21.70;38.19;102355.91;4974434;28;4097;-58
2022/03/25 02:46:51;;;;;;;;;;;;;;;21.68;38.28;102358.66;4959765;28;4064;-57
2022/03/25 02:49:19;;;;;;;;;;;;;;;21.69;38.11;102365.94;4969596;28;5351;-58
2022/03/25 02:51:45;;;;;;;;;;;;;;;21.69;38.27;102354.41;4973496;28;4358;-58
2022/03/25 02:54:11;;;;;;;;;;;;;;;21.67;38.22;102357.16;4973020;28;5248;-58
2022/03/25 02:56:38;;;;;;;;;;;;;;;21.69;38.30;102362.28;4973275;28;4347;-58
2022/03/25 02:59:04;;;;;;;;;;;;;;;21.69;38.12;102357.28;4973579;28;5430;-58
2022/03/25 03:01:31;;;;;;;;;;;;;;;21.69;38.22;102363.06;4976062;28;4182;-58
2022/03/25 03:03:57;;;;;;;;;;;;;;;21.70;38.03;102361.66;4968909;28;4190;-58
2022/03/25 03:06:24;;;;;;;;;;;;;;;21.71;38.10;102357.41;4972449;28;5421;-58
2022/03/25 03:08:50;;;;;;;;;;;;;;;21.70;38.00;102361.66;4975903;28;5512;-57
2022/03/25 03:11:17;;;;;;;;;;;;;;;21.70;38.12;102358.78;4964837;28;4165;-58
2022/03/25 03:13:44;;;;;;;;;;;;;;;21.70;38.11;102360.91;4973600;28;4221;-58
2022/03/25 03:16:10;;;;;;;;;;;;;;;21.69;38.00;102360.19;4973198;28;4208;-58
2022/03/25 03:18:37;;;;;;;;;;;;;;;21.66;38.07;102352.00;4973150;28;4225;-58
2022/03/25 03:21:04;;;;;;;;;;;;;;;21.67;37.99;102351.41;4972661;28;4206;-58
2022/03/25 03:23:30;;;;;;;;;;;;;;;21.66;37.97;102354.88;4975976;28;5532;-58
2022/03/25 03:25:56;;;;;;;;;;;;;;;21.66;38.17;102358.53;4972759;28;5525;-58
2022/03/25 03:28:22;;;;;;;;;;;;;;;21.64;38.11;102351.88;4973611;28;4071;-57
2022/03/25 03:30:49;;;;;;;;;;;;;;;21.63;38.15;102356.88;4973534;28;5245;-59
2022/03/25 03:33:15;;;;;;;;;;;;;;;21.64;38.20;102346.84;4969012;28;4195;-57
2022/03/25 03:35:42;;;;;;;;;;;;;;;21.65;38.03;102354.16;4970133;28;4351;-58
2022/03/25 03:38:08;;;;;;;;;;;;;;;21.64;38.21;102354.75;4974051;28;5373;-57
2022/03/25 03:40:35;;;;;;;;;;;;;;;21.61;38.15;102353.88;4972911;28;4072;-57
2022/03/25 03:43:03;;;;;;;;;;;;;;;21.64;38.21;102355.50;4973565;28;4224;-57
2022/03/25 03:45:32;;;;;;;;;;;;;;;21.64;38.25;102364.16;4975894;28;4363;-57
2022/03/25 03:47:58;;;;;;;;;;;;;;;21.66;38.03;102367.16;4975774;28;4208;-57
2022/03/25 03:50:25;;;;;;;;;;;;;;;21.66;37.90;102366.41;4973180;28;4167;-57
2022/03/25 03:52:51;;;;;;;;;;;;;;;21.65;38.10;102371.44;4974345;28;4250;-58
2022/03/25 03:55:18;;;;;;;;;;;;;;;21.64;38.12;102369.91;4974750;28;4268;-57
2022/03/25 03:57:44;;;;;;;;;;;;;;;21.63;38.25;102368.41;4975285;28;4120;-57
2022/03/25 04:00:11;;;;;;;;;;;;;;;21.65;38.10;102368.56;4972997;28;4206;-58
2022/03/25 04:02:41;;;;;;;;;;;;;;;21.64;38.24;102364.16;4973487;28;5230;-57
2022/03/25 04:05:08;;;;;;;;;;;;;;;21.64;38.19;102363.41;4975454;28;5292;-57
2022/03/25 04:07:44;;;;;;;;;;;;;;;21.63;38.17;102373.44;4974440;28;5384;-57
2022/03/25 04:10:10;;;;;;;;;;;;;;;21.65;38.13;102371.44;4974675;28;5435;-57
2022/03/25 04:12:37;;;;;;;;;;;;;;;21.64;38.26;102369.16;4973170;28;4398;-57
2022/03/25 04:15:04;;;;;;;;;;;;;;;21.64;38.23;102375.69;4976417;28;5499;-57
2022/03/25 04:17:30;;;;;;;;;;;;;;;21.65;38.32;102377.22;4974814;28;4166;-57
2022/03/25 04:19:56;;;;;;;;;;;;;;;21.64;38.19;102381.44;4976213;28;4130;-57
2022/03/25 04:22:23;;;;;;;;;;;;;;;21.62;38.26;102381.31;4975044;28;6375;-57
2022/03/25 04:24:49;;;;;;;;;;;;;;;21.57;38.48;102378.78;4973314;28;4176;-58
2022/03/25 04:27:15;;;;;;;;;;;;;;;21.60;38.54;102381.22;4971373;28;5454;-59
2022/03/25 04:29:42;;;;;;;;;;;;;;;21.66;38.27;102378.69;4977683;28;4262;-57
2022/03/25 04:32:08;;;;;;;;;;;;;;;21.64;38.18;102375.69;4974492;28;4230;-57
2022/03/25 04:34:35;;;;;;;;;;;;;;;21.65;38.35;102370.69;4980202;28;4254;-57
2022/03/25 04:37:01;;;;;;;;;;;;;;;21.62;38.07;102378.44;4979546;28;5470;-58
2022/03/25 04:39:27;;;;;;;;;;;;;;;21.62;38.29;102369.78;4978522;28;4213;-57
2022/03/25 04:41:54;;;;;;;;;;;;;;;21.61;38.32;102382.69;4977595;28;4233;-57
2022/03/25 04:44:20;;;;;;;;;;;;;;;21.63;38.22;102387.84;4978904;28;4200;-58
2022/03/25 04:46:46;;;;;;;;;;;;;;;21.62;38.12;102384.19;4976777;28;4484;-58
2022/03/25 04:49:18;;;;;;;;;;;;;;;21.62;38.11;102389.97;4974126;28;4991;-58
2022/03/25 04:51:44;;;;;;;;;;;;;;;21.61;38.24;102382.69;4977012;28;5431;-57
2022/03/25 04:54:10;;;;;;;;;;;;;;;21.63;38.13;102391.47;4976723;28;4160;-57
2022/03/25 04:56:38;;;;;;;;;;;;;;;21.65;38.36;102388.75;4976849;28;4180;-57
2022/03/25 04:59:04;;;;;;;;;;;;;;;21.64;38.36;102392.97;4977117;28;4216;-57
2022/03/25 05:01:30;;;;;;;;;;;;;;;21.65;38.39;102394.50;4975567;28;4295;-58
2022/03/25 05:03:57;;;;;;;;;;;;;;;21.64;38.42;102395.13;4977863;28;4273;-58
2022/03/25 05:06:23;;;;;;;;;;;;;;;21.65;38.57;102388.75;4978030;28;4290;-57
2022/03/25 05:08:50;;;;;;;;;;;;;;;21.64;38.79;102398.00;4977854;28;5460;-57
2022/03/25 05:11:16;;;;;;;;;;;;;;;21.66;38.69;102396.00;4977843;28;5687;-57
2022/03/25 05:13:43;;;;;;;;;;;;;;;21.66;38.68;102389.47;4979603;28;4248;-57
2022/03/25 05:16:09;;;;;;;;;;;;;;;21.62;38.72;102398.59;4979055;28;4565;-57
2022/03/25 05:18:36;;;;;;;;;;;;;;;21.62;38.71;102389.97;4977739;28;5466;-58
2022/03/25 05:21:05;;;;;;;;;;;;;;;21.63;38.79;102397.25;4978484;28;4347;-57
2022/03/25 05:23:31;;;;;;;;;;;;;;;21.60;38.91;102398.50;4977601;28;4372;-57
2022/03/25 05:25:57;;;;;;;;;;;;;;;21.58;38.93;102401.25;4976291;28;5286;-57
2022/03/25 05:28:26;;;;;;;;;;;;;;;21.59;38.97;102396.97;4976959;28;4051;-57
2022/03/25 05:30:52;;;;;;;;;;;;;;;21.59;39.14;102396.97;4973688;28;5276;-58
2022/03/25 05:33:18;;;;;;;;;;;;;;;21.57;39.07;102399.72;4974717;28;4191;-57
2022/03/25 05:35:45;;;;;;;;;;;;;;;21.59;39.08;102402.75;4978597;28;4177;-57
2022/03/25 05:38:12;;;;;;;;;;;;;;;21.53;39.33;102399.44;4976652;28;4193;-58
2022/03/25 05:40:38;;;;;;;;;;;;;;;21.58;39.17;102401.25;4977505;28;4187;-59
2022/03/25 05:43:05;;;;;;;;;;;;;;;21.61;39.01;102397.13;4978074;28;5257;-59
2022/03/25 05:45:31;;;;;;;;;;;;;;;21.61;39.00;102411.53;4978061;28;4016;-58
2022/03/25 05:47:58;;;;;;;;;;;;;;;21.59;38.79;102408.50;4979239;28;6556;-57
2022/03/25 05:50:24;;;;;;;;;;;;;;;21.62;38.75;102413.03;4978787;28;4419;-59
2022/03/25 05:52:51;;;;;;;;;;;;;;;21.13;34.39;102409.75;4972047;28;5428;-59
2022/03/25 05:55:17;;;;;;;;;;;;;;;21.14;36.16;102405.50;4975392;28;4249;-58
2022/03/25 05:57:44;;;;;;;;;;;;;;;21.26;36.75;102406.31;4974738;28;4194;-58
2022/03/25 06:00:11;;;;;;;;;;;;;;;21.37;36.70;102413.50;4974665;28;4206;-58
2022/03/25 06:02:43;;;;;;;;;;;;;;;21.41;36.84;102404.41;4974897;28;4083;-58
2022/03/25 06:05:10;;;;;;;;;;;;;;;21.50;36.93;102406.47;4972695;28;4956;-58
2022/03/25 06:07:37;;;;;;;;;;;;;;;21.50;36.86;102415.13;4974794;28;5307;-58
2022/03/25 06:10:04;;;;;;;;;;;;;;;21.42;37.04;102417.47;4976492;28;4156;-58
2022/03/25 06:12:30;;;;;;;;;;;;;;;21.50;36.99;102418.00;4972298;28;4085;-58
2022/03/25 06:14:57;;;;;;;;;;;;;;;21.49;37.03;102417.25;4971206;28;4255;-59
2022/03/25 06:17:23;;;;;;;;;;;;;;;21.53;37.03;102416.75;4977351;28;4491;-59
2022/03/25 06:19:49;;;;;;;;;;;;;;;21.55;36.92;102425.53;4975571;28;4227;-60
2022/03/25 06:22:16;;;;;;;;;;;;;;;21.55;37.01;102414.00;4973055;28;4164;-59
2022/03/25 06:24:42;;;;;;;;;;;;;;;21.53;36.95;102422.50;4974807;28;4185;-59
2022/03/25 06:27:10;;;;;;;;;;;;;;;21.55;37.13;102425.53;4974714;28;4208;-58
2022/03/25 06:29:37;;;;;;;;;;;;;;;21.52;37.28;102427.53;4978042;28;5361;-58
2022/03/25 06:32:05;;;;;;;;;;;;;;;21.54;37.30;102436.31;4971991;28;4197;-59
2022/03/25 06:34:31;;;;;;;;;;;;;;;21.56;37.45;102432.81;4971010;28;4188;-59
2022/03/25 06:36:58;;;;;;;;;;;;;;;21.56;37.54;102438.59;4975121;28;5505;-59
2022/03/25 06:39:24;;;;;;;;;;;;;;;21.56;37.70;102438.59;4975422;28;4298;-58
2022/03/25 06:41:50;;;;;;;;;;;;;;;21.57;37.94;102445.84;4977815;28;4283;-58
2022/03/25 06:44:17;;;;;;;;;;;;;;;21.59;37.64;102437.34;4972578;28;4241;-58
2022/03/25 06:46:43;;;;;;;;;;;;;;;21.58;37.80;102435.06;4970164;28;4222;-59
2022/03/25 06:49:09;;;;;;;;;;;;;;;21.58;37.85;102441.59;4975440;28;4222;-58
2022/03/25 06:51:36;;;;;;;;;;;;;;;21.63;37.99;102445.50;4970407;28;4245;-58
2022/03/25 06:54:02;;;;;;;;;;;;;;;21.65;38.32;102446.41;4965441;28;5325;-60
2022/03/25 06:56:29;;;;;;;;;;;;;;;21.70;38.83;102448.16;4971458;28;4403;-61
2022/03/25 06:58:56;;;;;;;;;;;;;;;21.79;38.82;102446.59;4971769;28;4237;-60
2022/03/25 07:01:22;;;;;;;;;;;;;;;21.74;38.54;102448.44;4976470;28;4213;-60
2022/03/25 07:03:49;;;;;;;;;;;;;;;21.81;38.68;102457.50;4974396;28;4176;-65
2022/03/25 07:06:16;;;;;;;;;;;;;;;21.29;35.73;102451.19;4970355;28;4247;-62
2022/03/25 07:08:42;;;;;;;;;;;;;;;21.42;36.27;102452.81;4975029;28;4191;-62
2022/03/25 07:11:08;;;;;;;;;;;;;;;21.46;37.87;102458.06;4975108;28;4163;-62
2022/03/25 07:13:35;;;;;;;;;;;;;;;21.51;38.03;102460.63;4974707;28;4285;-62
2022/03/25 07:16:02;;;;;;;;;;;;;;;21.53;38.34;102468.63;4975139;28;4140;-62
2022/03/25 07:18:29;;;;;;;;;;;;;;;21.57;38.24;102468.91;4976527;28;4213;-62
2022/03/25 07:20:59;;;;;;;;;;;;;;;21.60;38.21;102473.44;4975236;28;4173;-61
2022/03/25 07:23:25;;;;;;;;;;;;;;;21.61;38.42;102479.97;4974788;28;5502;-61
2022/03/25 07:25:52;;;;;;;;;;;;;;;21.61;38.65;102474.94;4977369;28;4201;-62
2022/03/25 07:28:18;;;;;;;;;;;;;;;21.63;38.65;102474.34;4977748;28;4397;-61
2022/03/25 07:30:44;;;;;;;;;;;;;;;21.65;38.80;102481.00;4977403;28;4215;-61
2022/03/25 07:33:11;;;;;;;;;;;;;;;21.64;38.85;102479.47;4975341;28;4157;-61
2022/03/25 07:35:37;;;;;;;;;;;;;;;21.69;38.94;102475.50;4974579;28;4210;-61
2022/03/25 07:38:06;;;;;;;;;;;;;;;21.67;38.77;102471.72;4976341;28;4319;-61
2022/03/25 07:40:32;;;;;;;;;;;;;;;21.67;39.00;102475.38;4977183;28;4145;-61
2022/03/25 07:42:58;;;;;;;;;;;;;;;21.69;39.01;102487.03;4977143;28;4270;-61
2022/03/25 07:45:25;;;;;;;;;;;;;;;21.72;39.00;102485.78;4974561;28;5492;-61
2022/03/25 07:47:52;;;;;;;;;;;;;;;21.70;39.06;102482.03;4976056;28;4301;-61
2022/03/25 07:50:19;;;;;;;;;;;;;;;21.72;38.97;102485.78;4974993;28;4239;-61
2022/03/25 07:52:46;;;;;;;;;;;;;;;21.72;39.07;102482.91;4974434;28;4250;-61
2022/03/25 07:55:13;;;;;;;;;;;;;;;21.73;38.97;102481.53;4975108;28;5327;-61
2022/03/25 07:57:39;;;;;;;;;;;;;;;21.72;39.26;102482.91;4973363;28;5336;-61
2022/03/25 08:00:11;;;;;;;;;;;;;;;21.72;39.24;102479.28;4976828;28;4269;-61
2022/03/25 08:02:41;;;;;;;;;;;;;;;21.75;39.11;102486.69;4977275;28;4408;-61
2022/03/25 08:05:09;;;;;;;;;;;;;;;21.74;39.33;102485.94;4966056;28;4259;-59
2022/03/25 08:07:53;;;;;;;;;;;;;;;21.54;36.17;102488.19;4969872;28;3988;-61
2022/03/25 08:10:21;;;;;;;;;;;;;;;21.47;36.70;102488.41;4970031;28;4266;-62
2022/03/25 08:12:48;;;;;;;;;;;;;;;21.57;38.18;102491.97;4975269;28;4278;-62
2022/03/25 08:15:14;;;;;;;;;;;;;;;21.65;38.43;102497.53;4971576;28;4191;-69
2022/03/25 08:17:45;;;;;;;;;;;;;;;21.23;33.23;102499.75;4970739;28;4242;-70
2022/03/25 08:20:11;;;;;;;;;;;;;;;21.03;32.31;102492.59;4970060;28;6227;-61
2022/03/25 08:22:37;;;;;;;;;;;;;;;21.18;32.77;102494.31;4973841;28;5319;-62
2022/03/25 08:27:58;;;;;;;;;;;;;;;21.49;35.43;102503.72;4957794;28;4190;-62
2022/03/25 08:30:25;;;;;;;;;;;;;;;21.54;35.83;102504.75;4974673;28;4182;-62
2022/03/25 08:32:52;;;;;;;;;;;;;;;21.58;36.07;102505.03;4974545;28;4147;-62
2022/03/25 08:35:18;;;;;;;;;;;;;;;21.61;36.39;102503.78;4974019;28;4222;-62
2022/03/25 08:37:44;;;;;;;;;;;;;;;21.64;36.26;102501.78;4976541;28;4066;-62
2022/03/25 08:40:11;;;;;;;;;;;;;;;21.63;36.58;102506.81;4974163;28;4227;-62
2022/03/25 08:42:37;;;;;;;;;;;;;;;21.62;36.52;102510.28;4973930;28;4187;-60
2022/03/25 08:45:04;;;;;;;;;;;;;;;21.65;36.90;102504.06;4970792;28;4190;-61
2022/03/25 08:47:30;;;;;;;;;;;;;;;21.66;36.98;102505.56;4970944;28;4249;-60
2022/03/25 08:49:57;;;;;;;;;;;;;;;21.66;37.40;102505.56;4975042;28;5234;-60
2022/03/25 08:52:23;;;;;;;;;;;;;;;21.66;37.34;102511.31;4974583;28;4278;-60
2022/03/25 08:54:49;;;;;;;;;;;;;;;21.74;38.36;102506.13;4970681;28;4188;-61
2022/03/25 08:57:15;;;;;;;;;;;;;;;21.83;38.22;102513.19;4971497;28;4191;-61
2022/03/25 08:59:42;;;;;;;;;;;;;;;21.83;37.30;102506.63;4970657;28;4102;-64
2022/03/25 09:02:09;;;;;;;;;;;;;;;21.79;36.46;102507.13;4977555;28;4165;-62
2022/03/25 09:04:35;;;;;;;;;;;;;;;21.81;35.95;102510.16;4976144;28;4362;-63
2022/03/25 09:07:01;;;;;;;;;;;;;;;21.83;35.65;102503.75;4975299;28;5375;-60
2022/03/25 09:09:29;;;;;;;;;;;;;;;21.83;35.25;102512.41;4977256;28;6347;-60
2022/03/25 09:11:55;;;;;;;;;;;;;;;21.82;34.85;102517.44;4976112;28;4168;-61
2022/03/25 09:14:22;;;;;;;;;;;;;;;21.83;34.90;102507.41;4973974;28;4126;-61
2022/03/25 09:16:48;;;;;;;;;;;;;;;21.84;34.57;102513.94;4978361;28;4156;-62
2022/03/25 09:19:14;;;;;;;;;;;;;;;21.80;34.98;102519.41;4980212;28;4198;-63
2022/03/25 09:21:41;;;;;;;;;;;;;;;21.75;34.97;102510.50;4980008;28;4221;-62
2022/03/25 09:24:07;;;;;;;;;;;;;;;21.70;34.87;102505.09;4975186;28;4156;-61
2022/03/25 09:26:34;;;;;;;;;;;;;;;21.69;35.30;102515.88;4978071;28;5243;-62
2022/03/25 09:29:00;;;;;;;;;;;;;;;21.65;35.10;102515.59;4981481;28;4279;-62
2022/03/25 09:31:27;;;;;;;;;;;;;;;21.63;36.41;102515.44;4978937;28;4193;-62
2022/03/25 09:36:54;;;;;;;;;;;;;;;21.66;37.63;102510.56;4975791;28;4232;-63
2022/03/25 09:39:20;;;;;;;;;;;;;;;21.69;37.16;102507.22;4978445;28;4144;-62
2022/03/25 09:41:47;;;;;;;;;;;;;;;21.60;36.40;102508.06;4973270;28;4079;-71
2022/03/25 09:44:14;;;;;;;;;;;;;;;21.39;34.11;102505.13;4968627;28;4258;-64
2022/03/25 09:46:42;;;;;;;;;;;;;;;21.38;34.45;102512.25;4976627;28;4287;-63
2022/03/25 09:49:09;;;;;;;;;;;;;;;21.50;34.68;102510.97;4974161;28;4165;-64
2022/03/25 09:51:37;;;;;;;;;;;;;;;21.53;34.73;102512.66;4975844;28;4329;-68
2022/03/25 09:54:05;;;;;;;;;;;;;;;21.63;37.59;102512.56;4977036;28;4216;-66
2022/03/25 09:56:34;;;;;;;;;;;;;;;21.66;37.55;102513.47;4975564;28;5554;-61
2022/03/25 09:59:02;;;;;;;;;;;;;;;21.67;38.48;102507.09;4971055;28;4387;-61
2022/03/25 10:01:28;;;;;;;;;;;;;;;21.53;37.82;102509.75;4973352;28;4387;-62
2022/03/25 10:03:55;;;;;;;;;;;;;;;21.74;37.05;102511.88;4972201;28;4357;-59
2022/03/25 10:06:21;;;;;;;;;;;;;;;21.87;36.61;102506.91;4973457;28;4077;-62
2022/03/25 10:08:55;;;;;;;;;;;;;;;21.83;37.63;102503.75;4967034;28;4251;-62
2022/03/25 10:11:26;;;;;;;;;;;;;;;21.91;38.16;102501.41;4973827;28;4167;-63
2022/03/25 10:14:14;;;;;;;;;;;;;;;21.88;38.56;102505.56;4974756;28;4257;-60
2022/03/25 10:16:41;;;;;;;;;;;;;;;21.91;38.84;102498.53;4971458;28;4314;-60
2022/03/25 10:19:10;;;;;;;;;;;;;;;21.89;37.88;102493.38;4969707;28;5251;-62
2022/03/25 10:21:49;;;;;;;;;;;;;;;21.98;38.41;102497.56;4972403;28;5298;-61
2022/03/25 10:24:18;;;;;;;;;;;;;;;21.99;38.45;102499.09;4971017;28;4188;-59
2022/03/25 10:26:45;;;;;;;;;;;;;;;22.01;38.79;102499.19;4974262;28;4186;-61
2022/03/25 10:29:22;;;;;;;;;;;;;;;22.06;38.16;102500.22;4974137;28;4169;-62
2022/03/25 10:32:07;;;;;;;;;;;;;;;21.96;38.39;102498.16;4970783;28;5109;-61
2022/03/25 10:34:37;;;;;;;;;;;;;;;21.98;38.53;102493.94;4975675;28;4164;-61
2022/03/25 10:37:04;;;;;;;;;;;;;;;21.99;38.51;102489.66;4978698;28;5428;-60
2022/03/25 10:39:31;;;;;;;;;;;;;;;21.97;38.27;102493.19;4973828;28;4088;-62
2022/03/25 10:41:58;;;;;;;;;;;;;;;22.00;38.77;102486.16;4973480;28;4206;-63
2022/03/25 10:44:43;;;;;;;;;;;;;;;22.06;38.58;102489.44;4970363;28;4096;-62
2022/03/25 10:47:15;;;;;;;;;;;;;;;22.00;38.57;102497.69;4963010;28;4200;-61
2022/03/25 10:49:43;;;;;;;;;;;;;;;21.98;38.49;102497.56;4965482;28;4062;-59
2022/03/25 10:52:22;;;;;;;;;;;;;;;22.02;38.36;102483.41;4972535;28;4080;-63
2022/03/25 10:55:16;;;;;;;;;;;;;;;22.12;38.06;102486.19;4968713;28;4232;-63
2022/03/25 10:57:55;;;;;;;;;;;;;;;22.17;38.08;102488.72;4982822;28;4314;-62
2022/03/25 11:00:25;;;;;;;;;;;;;;;22.20;38.25;102485.97;4981238;28;4178;-62
2022/03/25 11:02:52;;;;;;;;;;;;;;;22.15;38.45;102485.72;4979564;28;4206;-59
2022/03/25 11:05:18;;;;;;;;;;;;;;;22.18;38.34;102472.91;4977058;28;4206;-62
2022/03/25 11:07:45;;;;;;;;;;;;;;;22.17;38.32;102477.19;4978207;28;4266;-61
2022/03/25 11:10:13;;;;;;;;;;;;;;;22.15;38.32;102482.06;4978954;28;4099;-63
2022/03/25 11:12:43;;;;;;;;;;;;;;;22.17;38.66;102474.31;4969737;28;4226;-63
2022/03/25 11:15:10;;;;;;;;;;;;;;;22.15;38.39;102479.94;4975513;28;4030;-58
2022/03/25 11:17:37;;;;;;;;;;;;;;;22.11;38.55;102479.66;4975003;28;4249;-59
2022/03/25 11:20:05;;;;;;;;;;;;;;;22.10;38.45;102478.16;4976596;28;4213;-59
2022/03/25 11:22:32;;;;;;;;;;;;;;;22.08;38.47;102483.81;4978012;28;4235;-60
2022/03/25 11:24:59;;;;;;;;;;;;;;;22.10;38.45;102478.16;4975925;28;4308;-60
2022/03/25 11:27:26;;;;;;;;;;;;;;;22.11;38.63;102470.28;4975529;28;5444;-63
2022/03/25 11:29:57;;;;;;;;;;;;;;;22.14;38.73;102463.25;4978002;28;4167;-64
2022/03/25 11:32:24;;;;;;;;;;;;;;;22.16;38.48;102475.66;4974804;28;5493;-63
2022/03/25 11:34:53;;;;;;;;;;;;;;;22.23;38.09;102473.22;4974951;28;4279;-64
2022/03/25 11:37:26;;;;;;;;;;;;;;;22.15;38.35;102465.50;4975058;28;4071;-62
2022/03/25 11:40:11;;;;;;;;;;;;;;;22.18;38.43;102472.91;4978220;28;4360;-62
2022/03/25 11:42:38;;;;;;;;;;;;;;;22.19;38.47;102467.88;4979436;28;4370;-63
2022/03/25 11:45:20;;;;;;;;;;;;;;;22.22;38.38;102460.91;4978652;28;4168;-63
2022/03/25 11:48:07;;;;;;;;;;;;;;;22.24;38.45;102460.28;4980378;28;4056;-62
2022/03/25 11:50:35;;;;;;;;;;;;;;;22.19;38.47;102447.69;4975773;28;4157;-60
2022/03/25 11:53:10;;;;;;;;;;;;;;;22.26;38.53;102449.63;4974081;28;4227;-60
2022/03/25 11:55:56;;;;;;;;;;;;;;;22.27;38.21;102447.50;4975845;28;4065;-60
2022/03/25 11:58:22;;;;;;;;;;;;;;;22.30;38.68;102437.59;4976914;28;4167;-59
2022/03/25 12:01:08;;;;;;;;;;;;;;;22.40;38.38;102441.09;4978710;28;4125;-60
2022/03/25 12:03:39;;;;;;;;;;;;;;;22.46;38.02;102443.63;4976151;28;4241;-60
2022/03/25 12:06:05;;;;;;;;;;;;;;;22.44;38.07;102435.59;4977544;28;5372;-60
2022/03/25 12:08:32;;;;;;;;;;;;;;;22.48;37.92;102440.88;4976916;28;4084;-61
2022/03/25 12:11:00;;;;;;;;;;;;;;;22.49;38.12;102431.56;4977763;28;5402;-61
2022/03/25 12:13:45;;;;;;;;;;;;;;;22.51;37.91;102428.81;4975663;28;4209;-60
2022/03/25 12:16:11;;;;;;;;;;;;;;;22.50;38.36;102427.31;4977056;28;5455;-65
2022/03/25 12:18:41;;;;;;;;;;;;;;;22.44;37.06;102424.03;4976437;28;4249;-59
2022/03/25 12:21:19;;;;;;;;;;;;;;;22.40;37.31;102423.03;4972492;28;4189;-62
2022/03/25 12:23:55;;;;;;;;;;;;;;;22.39;37.68;102428.06;4977572;28;4211;-73
2022/03/25 12:26:28;;;;;;;;;;;;;;;22.32;35.84;102424.03;4975503;28;6801;-63
2022/03/25 12:28:54;;;;;;;;;;;;;;;22.39;36.92;102422.28;4976201;28;4256;-63
2022/03/25 12:31:21;;;;;;;;;;;;;;;22.43;37.52;102413.13;4980503;28;5248;-60
2022/03/25 12:33:53;;;;;;;;;;;;;;;22.39;37.73;102410.75;4981857;28;4209;-62
2022/03/25 12:36:20;;;;;;;;;;;;;;;22.48;37.74;102418.53;4975867;28;5904;-60
2022/03/25 12:38:47;;;;;;;;;;;;;;;22.50;37.82;102415.78;4977310;28;4131;-61
2022/03/25 12:41:24;;;;;;;;;;;;;;;22.53;37.49;102411.63;4973152;28;4178;-59
2022/03/25 12:44:10;;;;;;;;;;;;;;;22.50;37.76;102409.25;4972914;28;4278;-60
2022/03/25 12:46:36;;;;;;;;;;;;;;;22.52;37.66;102394.94;4975743;28;4305;-62
2022/03/25 12:49:03;;;;;;;;;;;;;;;22.58;37.64;102398.94;4976913;28;5291;-63
2022/03/25 12:51:30;;;;;;;;;;;;;;;22.61;37.78;102402.72;4973749;28;4243;-61
2022/03/25 12:53:56;;;;;;;;;;;;;;;22.57;37.59;102396.69;4975583;28;4260;-63
2022/03/25 12:56:22;;;;;;;;;;;;;;;22.57;37.78;102396.69;4978726;28;4199;-62